Time;durP1;ratioP1;P1;durP2;ratioP2;P2;SDS_P1;SDS_P2;PMS_P1;PMS_P2;Temp;Humidity;BMP_temperature;BMP_pressure;BME280_temperature;BME280_humidity;BME280_pressure;Samples;Min_cycle;Max_cycle;Signal;HPM_P1;HPM_P2
2022/05/08 00:01:16;;;;;;;16.80;7.37;;;10.90;99.90;;;;;;5046507;28;20686;-79
2022/05/08 00:03:44;;;;;;;23.47;8.13;;;10.80;99.90;;;;;;5047622;28;20242;-80
2022/05/08 00:06:11;;;;;;;18.90;6.37;;;10.80;99.90;;;;;;5048010;28;20561;-80
2022/05/08 00:08:39;;;;;;;16.50;6.37;;;10.80;99.90;;;;;;5047753;28;20202;-79
2022/05/08 00:11:06;;;;;;;20.37;6.33;;;10.70;99.90;;;;;;5047928;28;20241;-79
2022/05/08 00:13:33;;;;;;;18.43;6.73;;;10.70;99.90;;;;;;5047875;28;20209;-78
2022/05/08 00:16:00;;;;;;;20.27;6.37;;;10.70;99.90;;;;;;5046556;28;20251;-80
2022/05/08 00:18:27;;;;;;;16.90;5.90;;;10.60;99.90;;;;;;5047392;28;20230;-79
2022/05/08 00:20:55;;;;;;;17.07;5.60;;;10.60;99.90;;;;;;5047146;28;20198;-80
2022/05/08 00:23:22;;;;;;;16.90;6.13;;;10.60;99.90;;;;;;5046745;28;20555;-79
2022/05/08 00:25:49;;;;;;;19.97;6.80;;;10.50;99.90;;;;;;5047124;28;20186;-80
2022/05/08 00:28:16;;;;;;;18.53;5.93;;;10.50;99.90;;;;;;5046527;28;20206;-80
2022/05/08 00:30:43;;;;;;;21.13;6.17;;;10.50;99.90;;;;;;5046541;28;20234;-81
2022/05/08 00:33:10;;;;;;;28.07;6.73;;;10.40;99.90;;;;;;5046920;28;20205;-80
2022/05/08 00:35:37;;;;;;;24.70;6.20;;;10.40;99.90;;;;;;5047036;28;20838;-79
2022/05/08 00:38:05;;;;;;;22.50;5.77;;;10.40;99.90;;;;;;5045764;28;20233;-80
2022/05/08 00:40:35;;;;;;;20.40;5.20;;;10.40;99.90;;;;;;5047180;28;20225;-79
2022/05/08 00:43:26;;;;;;;14.50;5.07;;;10.40;99.90;;;;;;5046398;28;20206;-80
2022/05/08 00:45:53;;;;;;;30.37;6.20;;;10.40;99.90;;;;;;5047407;28;20206;-80
2022/05/08 00:48:20;;;;;;;17.63;5.97;;;10.40;99.90;;;;;;5046815;28;20241;-79
2022/05/08 00:50:47;;;;;;;18.53;4.87;;;10.40;99.90;;;;;;5046548;28;20209;-78
2022/05/08 00:53:15;;;;;;;19.70;4.90;;;10.30;99.90;;;;;;5046621;28;20198;-80
2022/05/08 00:55:42;;;;;;;23.23;5.77;;;10.30;99.90;;;;;;5046523;28;20193;-79
2022/05/08 00:58:10;;;;;;;17.67;4.60;;;10.20;99.90;;;;;;5046211;28;20217;-80
2022/05/08 01:00:36;;;;;;;19.10;5.10;;;10.20;99.90;;;;;;5046979;28;20224;-79
2022/05/08 01:03:04;;;;;;;15.87;5.83;;;10.20;99.90;;;;;;5045935;28;20242;-78
2022/05/08 01:05:31;;;;;;;24.73;5.07;;;10.20;99.90;;;;;;5045950;28;20209;-79
2022/05/08 01:07:57;;;;;;;18.73;6.23;;;10.10;99.90;;;;;;5045290;28;20625;-79
2022/05/08 01:10:26;;;;;;;18.67;4.80;;;10.10;99.90;;;;;;5046374;28;20653;-79
2022/05/08 01:12:53;;;;;;;23.10;4.50;;;10.10;99.90;;;;;;5046406;28;20202;-79
2022/05/08 01:15:21;;;;;;;15.43;4.40;;;10.10;99.90;;;;;;5046526;28;20209;-78
2022/05/08 01:17:48;;;;;;;18.77;4.60;;;10.00;99.90;;;;;;5046218;28;20238;-78
2022/05/08 01:20:16;;;;;;;23.97;4.77;;;10.00;99.90;;;;;;5045846;28;20296;-80
2022/05/08 01:22:45;;;;;;;18.17;5.60;;;10.00;99.90;;;;;;5046303;28;20198;-80
2022/05/08 01:25:12;;;;;;;19.13;4.90;;;10.00;99.90;;;;;;5045927;28;20522;-78
2022/05/08 01:27:38;;;;;;;20.00;5.37;;;9.90;99.90;;;;;;5045971;28;20216;-80
2022/05/08 01:30:06;;;;;;;18.70;5.90;;;9.90;99.90;;;;;;5046417;28;20230;-79
2022/05/08 01:32:33;;;;;;;16.00;4.83;;;9.80;99.90;;;;;;5045303;28;20671;-80
2022/05/08 01:35:00;;;;;;;19.00;4.90;;;9.80;99.90;;;;;;5046667;28;20205;-79
2022/05/08 01:37:27;;;;;;;18.87;5.73;;;9.80;99.90;;;;;;5045963;28;20220;-79
2022/05/08 01:39:56;;;;;;;17.67;4.90;;;9.70;99.90;;;;;;5044180;28;20221;-80
2022/05/08 01:42:26;;;;;;;18.30;4.10;;;9.70;99.90;;;;;;5046048;28;20371;-80
2022/05/08 01:44:53;;;;;;;15.20;4.37;;;9.70;99.90;;;;;;5045842;28;20198;-79
2022/05/08 01:50:05;;;;;;;14.27;3.97;;;9.60;99.90;;;;;;5045794;28;20718;-80
2022/05/08 01:52:32;;;;;;;22.73;5.07;;;9.60;99.90;;;;;;5046191;28;20202;-80
2022/05/08 01:55:01;;;;;;;16.70;3.50;;;9.60;99.90;;;;;;5047209;28;20206;-80
2022/05/08 01:57:27;;;;;;;16.07;4.53;;;9.50;99.90;;;;;;5065697;28;20207;-80
2022/05/08 01:59:54;;;;;;;16.30;4.43;;;9.60;99.90;;;;;;5065177;28;20315;-80
2022/05/08 02:02:22;;;;;;;14.87;4.10;;;9.50;99.90;;;;;;5050530;28;20216;-80
2022/05/08 02:04:49;;;;;;;18.03;4.53;;;9.50;99.90;;;;;;5045582;28;20249;-80
2022/05/08 02:07:15;;;;;;;11.07;4.07;;;9.40;99.90;;;;;;5044605;28;20206;-80
2022/05/08 02:09:44;;;;;;;15.53;4.60;;;9.40;99.90;;;;;;5045633;28;20635;-80
2022/05/08 02:12:13;;;;;;;16.33;4.43;;;9.40;99.90;;;;;;5044908;28;20216;-80
2022/05/08 02:14:41;;;;;;;13.23;4.33;;;9.40;99.90;;;;;;5044529;28;20202;-80
2022/05/08 02:17:09;;;;;;;19.77;4.57;;;9.40;99.90;;;;;;5045564;28;20213;-80
2022/05/08 02:19:36;;;;;;;18.03;4.17;;;9.30;99.90;;;;;;5044914;28;20338;-79
2022/05/08 02:22:02;;;;;;;16.83;4.30;;;9.30;99.90;;;;;;5044429;28;20218;-80
2022/05/08 02:24:29;;;;;;;18.97;4.90;;;9.30;99.90;;;;;;5044982;28;20616;-80
2022/05/08 02:26:56;;;;;;;16.57;3.97;;;9.30;99.90;;;;;;5044973;28;20202;-80
2022/05/08 02:29:24;;;;;;;19.97;4.90;;;9.20;99.90;;;;;;5044452;28;20532;-79
2022/05/08 02:31:51;;;;;;;20.43;4.93;;;9.20;99.90;;;;;;5045418;28;20229;-79
2022/05/08 02:34:18;;;;;;;12.67;4.07;;;9.20;99.90;;;;;;5044929;28;20214;-79
2022/05/08 02:36:44;;;;;;;14.93;4.43;;;9.20;99.90;;;;;;5044227;28;20509;-79
2022/05/08 02:39:11;;;;;;;18.20;4.43;;;9.10;99.90;;;;;;5044976;28;20232;-81
2022/05/08 02:41:38;;;;;;;21.90;5.00;;;9.10;99.90;;;;;;5044678;28;20202;-79
2022/05/08 02:44:06;;;;;;;16.40;5.13;;;9.00;99.90;;;;;;5043933;28;20202;-79
2022/05/08 02:46:34;;;;;;;15.73;4.57;;;9.00;99.90;;;;;;5045019;28;20259;-78
2022/05/08 02:49:01;;;;;;;13.00;4.70;;;9.00;99.90;;;;;;5044562;28;20206;-78
2022/05/08 02:51:27;;;;;;;20.40;5.20;;;8.90;99.90;;;;;;5044270;28;20205;-79
2022/05/08 02:53:54;;;;;;;25.33;6.23;;;8.90;99.90;;;;;;5044521;28;20201;-79
2022/05/08 02:59:05;;;;;;;15.50;4.63;;;8.90;99.90;;;;;;5043932;28;20225;-79
2022/05/08 03:01:33;;;;;;;13.70;5.17;;;8.80;99.90;;;;;;5044491;28;20202;-80
2022/05/08 03:04:00;;;;;;;13.73;4.70;;;8.80;99.90;;;;;;5042989;28;20249;-79
2022/05/08 03:06:27;;;;;;;18.87;4.90;;;8.80;99.90;;;;;;5044877;28;20822;-81
2022/05/08 03:08:53;;;;;;;20.40;5.70;;;8.80;99.90;;;;;;5044935;28;20225;-79
2022/05/08 03:11:26;;;;;;;21.57;6.47;;;8.70;99.90;;;;;;5043954;28;20206;-80
2022/05/08 03:13:54;;;;;;;18.83;6.20;;;8.70;99.90;;;;;;5044573;28;20205;-78
2022/05/08 03:16:22;;;;;;;16.93;5.10;;;8.70;99.90;;;;;;5044514;28;20202;-79
2022/05/08 03:18:51;;;;;;;15.90;5.27;;;8.60;99.90;;;;;;5043705;28;20618;-80
2022/05/08 03:21:18;;;;;;;13.10;4.70;;;8.60;99.90;;;;;;5044329;28;20750;-79
2022/05/08 03:23:46;;;;;;;16.27;5.63;;;8.50;99.90;;;;;;5044362;28;20201;-79
2022/05/08 03:26:14;;;;;;;13.57;5.37;;;8.50;99.90;;;;;;5049752;28;20797;-79
2022/05/08 03:28:42;;;;;;;18.03;6.07;;;8.50;99.90;;;;;;5064820;28;20205;-78
2022/05/08 03:31:09;;;;;;;15.57;5.67;;;8.40;99.90;;;;;;5058193;28;20257;-79
2022/05/08 03:33:37;;;;;;;13.37;4.63;;;8.40;99.90;;;;;;5044127;28;20202;-77
2022/05/08 03:36:06;;;;;;;10.80;4.67;;;8.30;99.90;;;;;;5044262;28;20202;-80
2022/05/08 03:38:33;;;;;;;17.73;5.47;;;8.30;99.90;;;;;;5043031;28;20221;-78
2022/05/08 03:41:01;;;;;;;16.63;5.80;;;8.20;99.90;;;;;;5044484;28;20205;-78
2022/05/08 03:43:28;;;;;;;15.77;5.17;;;8.20;99.90;;;;;;5044859;28;20202;-78
2022/05/08 03:45:56;;;;;;;18.00;5.00;;;8.20;99.90;;;;;;5043736;28;20218;-79
2022/05/08 03:48:23;;;;;;;19.73;5.33;;;8.10;99.90;;;;;;5061490;28;20206;-78
2022/05/08 03:50:50;;;;;;;12.23;4.70;;;8.10;99.90;;;;;;5053945;28;20217;-80
2022/05/08 03:53:18;;;;;;;13.77;4.83;;;8.00;99.90;;;;;;5043194;28;20205;-80
2022/05/08 03:55:45;;;;;;;15.97;5.33;;;8.00;99.90;;;;;;5043229;28;20310;-78
2022/05/08 03:58:12;;;;;;;11.33;4.80;;;8.00;99.90;;;;;;5044421;28;20216;-79
2022/05/08 04:00:38;;;;;;;12.07;4.70;;;8.00;99.90;;;;;;5043385;28;20198;-80
2022/05/08 04:03:06;;;;;;;14.83;4.57;;;7.90;99.90;;;;;;5046106;28;20244;-79
2022/05/08 04:05:33;;;;;;;13.13;4.50;;;7.90;99.90;;;;;;5048327;28;20201;-79
2022/05/08 04:08:00;;;;;;;13.90;4.83;;;7.80;99.90;;;;;;5046799;28;20217;-78
2022/05/08 04:10:28;;;;;;;10.23;4.20;;;7.80;99.90;;;;;;5047944;28;20626;-79
2022/05/08 04:12:55;;;;;;;12.63;4.20;;;7.80;99.90;;;;;;5047103;28;20210;-79
2022/05/08 04:18:11;;;;;;;12.03;5.10;;;7.80;99.90;;;;;;5041667;28;20217;-78
2022/05/08 04:20:38;;;;;;;9.97;4.67;;;7.80;99.90;;;;;;5067591;28;20224;-79
2022/05/08 04:25:53;;;;;;;11.43;4.07;;;7.80;99.90;;;;;;5047211;28;20472;-79
2022/05/08 04:28:20;;;;;;;10.10;3.93;;;7.80;99.90;;;;;;5046498;28;20228;-79
2022/05/08 04:30:48;;;;;;;12.63;4.67;;;7.80;99.90;;;;;;5047475;28;20276;-80
2022/05/08 04:33:15;;;;;;;13.50;5.00;;;7.80;99.90;;;;;;5046848;28;20221;-78
2022/05/08 04:35:42;;;;;;;13.37;4.73;;;7.90;99.90;;;;;;5047254;28;20202;-78
2022/05/08 04:38:11;;;;;;;15.03;4.23;;;7.90;99.90;;;;;;5046703;28;20287;-78
2022/05/08 04:40:39;;;;;;;17.43;5.77;;;7.90;99.90;;;;;;5047115;28;20680;-79
2022/05/08 04:43:08;;;;;;;13.13;5.03;;;7.90;99.90;;;;;;5046024;28;20229;-78
2022/05/08 04:45:34;;;;;;;16.37;4.43;;;8.00;99.90;;;;;;5047559;28;20201;-79
2022/05/08 04:48:01;;;;;;;10.10;3.63;;;8.00;99.90;;;;;;5046490;28;20198;-77
2022/05/08 04:50:28;;;;;;;15.77;4.30;;;8.00;99.90;;;;;;5066515;28;20213;-80
2022/05/08 04:52:55;;;;;;;11.20;3.70;;;8.00;99.90;;;;;;5064149;28;20339;-80
2022/05/08 04:55:22;;;;;;;10.50;4.57;;;8.10;99.90;;;;;;5046624;28;20206;-80
2022/05/08 04:57:48;;;;;;;12.30;4.27;;;8.10;99.90;;;;;;5046649;28;20293;-79
2022/05/08 05:00:17;;;;;;;12.57;4.00;;;8.10;99.90;;;;;;5051772;28;20236;-79
2022/05/08 05:02:44;;;;;;;10.20;4.47;;;8.20;99.90;;;;;;5067581;28;20204;-79
2022/05/08 05:05:11;;;;;;;11.63;4.63;;;8.30;99.90;;;;;;5049196;28;20235;-78
2022/05/08 05:07:40;;;;;;;11.37;4.00;;;8.30;99.90;;;;;;5047343;28;20601;-78
2022/05/08 05:10:08;;;;;;;11.07;3.73;;;8.30;99.90;;;;;;5046447;28;20233;-80
2022/05/08 05:12:36;;;;;;;9.60;3.90;;;8.40;99.90;;;;;;5049701;28;20201;-78
2022/05/08 05:15:04;;;;;;;13.50;4.43;;;8.40;99.90;;;;;;5049581;28;20206;-78
2022/05/08 05:17:32;;;;;;;12.93;4.80;;;8.50;99.90;;;;;;5049864;28;20228;-79
2022/05/08 05:19:59;;;;;;;17.03;4.50;;;8.50;99.90;;;;;;5049078;28;20229;-79
2022/05/08 05:22:26;;;;;;;9.50;4.10;;;8.50;99.90;;;;;;5050158;28;20224;-78
2022/05/08 05:24:56;;;;;;;14.73;5.60;;;8.60;99.90;;;;;;5046029;28;20206;-79
2022/05/08 05:27:23;;;;;;;13.80;4.40;;;8.60;99.90;;;;;;5047380;28;20241;-77
2022/05/08 05:29:50;;;;;;;11.63;4.37;;;8.70;99.90;;;;;;5046276;28;20625;-79
2022/05/08 05:32:17;;;;;;;11.40;3.63;;;8.70;99.90;;;;;;5046053;28;20214;-78
2022/05/08 05:34:45;;;;;;;10.43;3.80;;;8.80;99.90;;;;;;5046345;28;20206;-78
2022/05/08 05:37:12;;;;;;;16.27;5.93;;;8.90;99.90;;;;;;5045762;28;20210;-79
2022/05/08 05:39:39;;;;;;;15.07;5.33;;;8.90;99.90;;;;;;5045490;28;20244;-79
2022/05/08 05:42:06;;;;;;;15.53;5.13;;;9.00;99.90;;;;;;5045850;28;20201;-79
2022/05/08 05:44:33;;;;;;;18.90;5.13;;;9.10;99.90;;;;;;5045852;28;20679;-81
2022/05/08 05:49:45;;;;;;;19.23;4.93;;;9.20;99.90;;;;;;5045910;28;20181;-79
2022/05/08 05:52:13;;;;;;;15.10;4.50;;;9.40;99.90;;;;;;5045616;28;20206;-80
2022/05/08 05:54:40;;;;;;;20.30;5.47;;;9.60;99.90;;;;;;5045875;28;20202;-81
2022/05/08 05:57:10;;;;;;;18.17;5.50;;;9.90;99.90;;;;;;5046086;28;20205;-79
2022/05/08 05:59:37;;;;;;;14.93;4.80;;;10.20;99.90;;;;;;5045855;28;20226;-78
2022/05/08 06:02:04;;;;;;;19.60;5.33;;;10.60;99.90;;;;;;5045638;28;20277;-81
2022/05/08 06:04:31;;;;;;;15.70;4.70;;;11.00;99.90;;;;;;5047045;28;20238;-79
2022/05/08 06:06:59;;;;;;;12.77;3.90;;;11.30;99.90;;;;;;5048064;28;20198;-81
2022/05/08 06:09:26;;;;;;;17.33;4.07;;;11.60;99.90;;;;;;5048036;28;20900;-81
2022/05/08 06:11:53;;;;;;;19.80;5.33;;;11.80;99.90;;;;;;5046840;28;20277;-80
2022/05/08 06:14:20;;;;;;;15.53;5.13;;;12.00;99.90;;;;;;5046218;28;20229;-80
2022/05/08 06:16:46;;;;;;;14.53;4.20;;;12.30;99.90;;;;;;5046245;28;20696;-80
2022/05/08 06:19:13;;;;;;;15.37;4.53;;;12.50;99.90;;;;;;5045919;28;20271;-77
2022/05/08 06:21:40;;;;;;;10.53;3.90;;;12.60;99.90;;;;;;5046018;28;20202;-82
2022/05/08 06:24:09;;;;;;;19.43;4.27;;;12.80;99.90;;;;;;5047358;28;20198;-81
2022/05/08 06:26:35;;;;;;;11.53;4.37;;;12.80;99.90;;;;;;5051239;28;20213;-82
2022/05/08 06:29:02;;;;;;;14.27;4.03;;;12.80;99.90;;;;;;5045210;28;20190;-80
2022/05/08 06:31:29;;;;;;;12.73;3.53;;;13.00;99.90;;;;;;5045697;28;20707;-82
2022/05/08 06:33:56;;;;;;;13.93;3.80;;;13.10;99.90;;;;;;5045855;28;20202;-83
2022/05/08 06:36:24;;;;;;;12.20;3.13;;;13.40;99.90;;;;;;5046473;28;20194;-82
2022/05/08 06:38:51;;;;;;;13.90;3.47;;;13.60;99.90;;;;;;5047505;28;20264;-79
2022/05/08 06:41:19;;;;;;;12.70;3.37;;;13.70;99.90;;;;;;5045596;28;20241;-80
2022/05/08 06:43:46;;;;;;;16.67;4.53;;;13.90;99.90;;;;;;5044982;28;20209;-82
2022/05/08 06:46:12;;;;;;;15.20;3.40;;;13.90;99.90;;;;;;5045676;28;20205;-81
2022/05/08 06:48:40;;;;;;;14.90;3.80;;;14.20;99.90;;;;;;5044106;28;20217;-81
2022/05/08 06:51:06;;;;;;;13.73;3.30;;;14.30;99.90;;;;;;5045155;28;20601;-81
2022/05/08 06:53:33;;;;;;;8.30;2.63;;;14.40;99.90;;;;;;5047442;28;20202;-83
2022/05/08 06:56:00;;;;;;;14.80;2.93;;;14.20;99.90;;;;;;5044585;28;20213;-82
2022/05/08 06:58:29;;;;;;;9.83;2.90;;;14.30;99.90;;;;;;5044786;28;20206;-81
2022/05/08 07:03:40;;;;;;;9.00;2.60;;;14.40;99.90;;;;;;5044246;28;20245;-81
2022/05/08 07:06:07;;;;;;;12.30;2.73;;;14.40;99.90;;;;;;5044307;28;20209;-81
2022/05/08 07:08:35;;;;;;;8.77;2.07;;;14.80;99.90;;;;;;5044675;28;20588;-81
2022/05/08 07:11:02;;;;;;;7.53;2.33;;;14.80;99.90;;;;;;5043207;28;20240;-80
2022/05/08 07:13:32;;;;;;;8.97;2.30;;;15.00;99.90;;;;;;5045835;28;21146;-83
2022/05/08 07:15:59;;;;;;;11.87;2.70;;;14.90;99.90;;;;;;5044603;28;20205;-82
2022/05/08 07:18:27;;;;;;;10.23;2.70;;;14.80;99.90;;;;;;5043645;28;20546;-81
2022/05/08 07:20:54;;;;;;;9.30;2.43;;;14.40;99.90;;;;;;5045404;28;20279;-81
2022/05/08 07:23:21;;;;;;;9.93;2.30;;;14.20;99.90;;;;;;5045750;28;20525;-81
2022/05/08 07:25:47;;;;;;;11.53;2.73;;;13.80;99.90;;;;;;5044734;28;20201;-82
2022/05/08 07:28:14;;;;;;;7.87;2.33;;;13.50;99.90;;;;;;5045256;28;20209;-81
2022/05/08 07:30:42;;;;;;;9.47;2.43;;;13.30;99.90;;;;;;5045060;28;20653;-82
2022/05/08 07:33:09;;;;;;;10.00;2.70;;;13.30;99.90;;;;;;5044761;28;20236;-79
2022/05/08 07:38:21;;;;;;;7.43;2.20;;;13.60;99.90;;;;;;5048113;28;20197;-80
2022/05/08 07:40:50;;;;;;;12.63;2.40;;;13.60;99.90;;;;;;5049421;28;20271;-82
2022/05/08 07:43:17;;;;;;;8.73;2.10;;;13.70;99.90;;;;;;5049777;28;20244;-80
2022/05/08 07:45:46;;;;;;;9.07;2.37;;;13.70;99.90;;;;;;5048876;28;20558;-80
2022/05/08 07:48:13;;;;;;;8.73;2.27;;;13.50;99.90;;;;;;5048863;28;20217;-81
2022/05/08 07:50:41;;;;;;;7.77;2.20;;;13.60;99.90;;;;;;5049007;28;20198;-80
2022/05/08 07:53:07;;;;;;;6.70;2.27;;;13.90;99.90;;;;;;5047533;28;20729;-83
2022/05/08 07:55:34;;;;;;;7.33;2.27;;;14.20;99.90;;;;;;5047893;28;20210;-80
2022/05/08 07:58:01;;;;;;;7.03;2.17;;;14.60;99.90;;;;;;5047308;28;20206;-80
2022/05/08 08:00:28;;;;;;;12.10;2.73;;;14.90;99.90;;;;;;5047539;28;20222;-81
2022/05/08 08:02:56;;;;;;;7.03;1.90;;;15.20;99.90;;;;;;5061213;28;20734;-81
2022/05/08 08:05:24;;;;;;;8.30;1.92;;;15.50;99.90;;;;;;5068005;28;20205;-82
2022/05/08 08:07:51;;;;;;;8.15;1.80;;;16.10;99.90;;;;;;5067201;28;20204;-80
2022/05/08 08:10:18;;;;;;;5.30;1.77;;;16.60;99.90;;;;;;5062133;28;20888;-81
2022/05/08 08:12:45;;;;;;;5.15;1.90;;;16.70;99.90;;;;;;5048293;28;20194;-81
2022/05/08 08:15:12;;;;;;;6.47;2.10;;;16.60;99.90;;;;;;5046811;28;20301;-81
2022/05/08 08:17:39;;;;;;;6.78;1.80;;;16.40;99.90;;;;;;5047536;28;20236;-82
2022/05/08 08:20:08;;;;;;;7.43;1.90;;;16.20;99.90;;;;;;5047001;28;20217;-81
2022/05/08 08:22:35;;;;;;;8.00;2.07;;;16.40;99.90;;;;;;5047907;28;20206;-80
2022/05/08 08:25:02;;;;;;;8.95;1.98;;;16.50;99.90;;;;;;5046992;28;20213;-80
2022/05/08 08:27:29;;;;;;;9.32;2.08;;;16.60;99.90;;;;;;5046978;28;20209;-81
2022/05/08 08:29:56;;;;;;;8.35;1.98;;;16.50;99.90;;;;;;5047373;28;20217;-79
2022/05/08 08:32:23;;;;;;;7.10;1.58;;;16.40;99.90;;;;;;5046887;28;20194;-80
2022/05/08 08:34:50;;;;;;;7.32;1.83;;;16.60;99.90;;;;;;5047073;28;20277;-80
2022/05/08 08:37:18;;;;;;;7.18;1.70;;;16.60;99.90;;;;;;5047274;28;20198;-81
2022/05/08 08:39:45;;;;;;;6.10;2.03;;;16.80;99.90;;;;;;5047613;28;20210;-79
2022/05/08 08:42:22;;;;;;;4.47;1.63;;;16.80;99.90;;;;;;5046836;28;20221;-80
2022/05/08 08:47:44;;;;;;;5.88;1.50;;;17.00;99.90;;;;;;5047356;28;20209;-80
2022/05/08 08:50:11;;;;;;;5.32;1.80;;;16.90;99.90;;;;;;5045615;28;20209;-80
2022/05/08 08:52:39;;;;;;;5.13;1.60;;;16.80;99.90;;;;;;5047897;28;20208;-81
2022/05/08 08:55:08;;;;;;;6.03;1.48;;;16.80;99.90;;;;;;5044985;28;20330;-80
2022/05/08 08:57:36;;;;;;;4.18;1.50;;;17.00;99.90;;;;;;5046611;28;20202;-79
2022/05/08 09:00:03;;;;;;;9.18;2.05;;;17.30;99.90;;;;;;5047244;28;20258;-81
2022/05/08 09:02:30;;;;;;;7.75;2.28;;;17.10;99.90;;;;;;5047380;28;20209;-80
2022/05/08 09:04:58;;;;;;;6.20;1.92;;;17.10;99.90;;;;;;5047404;28;20216;-81
2022/05/08 09:07:42;;;;;;;6.32;1.70;;;16.70;99.90;;;;;;5046928;28;20229;-81
2022/05/08 09:10:10;;;;;;;3.92;1.58;;;16.60;99.90;;;;;;5044602;28;20213;-81
2022/05/08 09:12:38;;;;;;;2.85;1.38;;;16.80;99.90;;;;;;5047350;28;20214;-80
2022/05/08 09:15:24;;;;;;;4.15;1.60;;;16.80;99.90;;;;;;5046465;28;20198;-81
2022/05/08 09:17:53;;;;;;;7.13;1.70;;;16.80;99.90;;;;;;5044628;28;20682;-79
2022/05/08 09:20:29;;;;;;;4.45;1.45;;;16.60;99.90;;;;;;5044794;28;20228;-79
2022/05/08 09:23:14;;;;;;;5.22;1.80;;;17.20;99.90;;;;;;5047050;28;20201;-80
2022/05/08 09:26:02;;;;;;;5.28;1.60;;;17.40;99.90;;;;;;5046312;28;20206;-79
2022/05/08 09:28:31;;;;;;;5.93;1.40;;;17.90;99.90;;;;;;5046969;28;20198;-80
2022/05/08 09:31:08;;;;;;;6.22;1.45;;;17.60;99.90;;;;;;5045914;28;20214;-80
2022/05/08 09:33:37;;;;;;;6.07;1.40;;;17.60;99.90;;;;;;5046615;28;20200;-79
2022/05/08 09:36:05;;;;;;;4.95;1.77;;;17.60;99.90;;;;;;5046568;28;20653;-79
2022/05/08 09:38:50;;;;;;;3.45;1.40;;;17.60;99.90;;;;;;5045686;28;20202;-79
2022/05/08 09:41:21;;;;;;;4.75;1.90;;;17.40;99.90;;;;;;5046504;28;20229;-79
2022/05/08 09:43:49;;;;;;;5.35;1.45;;;17.40;99.90;;;;;;5046036;28;20206;-79
2022/05/08 09:46:17;;;;;;;8.13;1.92;;;17.50;99.90;;;;;;5045694;28;20515;-81
2022/05/08 09:48:44;;;;;;;9.50;2.10;;;17.60;99.90;;;;;;5046770;28;20202;-80
2022/05/08 09:51:13;;;;;;;6.60;1.77;;;17.00;99.90;;;;;;5046323;28;20202;-78
2022/05/08 09:53:41;;;;;;;8.15;2.25;;;16.80;99.90;;;;;;5044613;28;20198;-78
2022/05/08 09:56:11;;;;;;;6.97;2.03;;;16.90;99.90;;;;;;5045811;28;20206;-81
2022/05/08 09:58:40;;;;;;;7.05;2.05;;;17.00;99.90;;;;;;5045296;28;20344;-80
2022/05/08 10:01:08;;;;;;;5.50;1.85;;;17.20;99.90;;;;;;5044431;28;20226;-80
2022/05/08 10:03:35;;;;;;;3.30;1.45;;;17.40;99.90;;;;;;5043430;28;20276;-80
2022/05/08 10:06:02;;;;;;;7.32;1.92;;;17.70;99.90;;;;;;5051536;28;20251;-82
2022/05/08 10:08:30;;;;;;;7.00;2.30;;;17.40;99.90;;;;;;5065381;28;20201;-80
2022/05/08 10:16:51;;;;;;;6.63;1.98;;;17.10;99.90;;;;;;5045222;28;20189;-81
2022/05/08 10:19:55;;;;;;;4.40;1.67;;;17.00;99.90;;;;;;5064687;28;20240;-80
2022/05/08 10:22:26;;;;;;;6.15;1.90;;;17.10;99.90;;;;;;5065377;28;20213;-79
2022/05/08 10:25:13;;;;;;;6.28;1.98;;;17.40;99.90;;;;;;5064958;28;20897;-78
2022/05/08 10:27:39;;;;;;;4.35;1.73;;;17.40;99.90;;;;;;5047598;28;20255;-80
2022/05/08 10:30:32;;;;;;;8.38;2.10;;;17.90;99.90;;;;;;5044748;28;20221;-79
2022/05/08 10:32:59;;;;;;;5.20;1.90;;;17.80;99.90;;;;;;5044674;28;20496;-79
2022/05/08 10:35:28;;;;;;;4.45;1.85;;;17.60;99.90;;;;;;5044211;28;20289;-78
2022/05/08 10:38:21;;;;;;;4.07;1.70;;;17.60;99.90;;;;;;5043965;28;20246;-81
2022/05/08 10:40:48;;;;;;;11.05;2.63;;;17.40;99.90;;;;;;5035750;28;20758;-80
2022/05/08 10:43:32;;;;;;;4.07;1.55;;;17.70;99.90;;;;;;5044183;28;20202;-80
2022/05/08 10:46:24;;;;;;;7.80;2.20;;;17.90;99.90;;;;;;5043766;28;20284;-80
2022/05/08 10:48:54;;;;;;;6.35;1.88;;;18.20;99.90;;;;;;5043886;28;20194;-79
2022/05/08 10:51:21;;;;;;;7.35;2.00;;;18.20;99.90;;;;;;5044324;28;20186;-79
2022/05/08 10:53:48;;;;;;;5.68;1.65;;;18.30;99.90;;;;;;5044448;28;20202;-80
2022/05/08 10:56:15;;;;;;;7.78;2.20;;;18.40;99.90;;;;;;5043356;28;20209;-80
2022/05/08 10:58:52;;;;;;;4.90;1.83;;;18.30;99.90;;;;;;5044376;28;20213;-81
2022/05/08 11:01:18;;;;;;;6.25;1.85;;;18.70;99.90;;;;;;5043422;28;20225;-79
2022/05/08 11:03:47;;;;;;;5.13;1.90;;;18.40;99.90;;;;;;5043465;28;20303;-79
2022/05/08 11:06:20;;;;;;;3.50;1.50;;;18.50;99.90;;;;;;5044835;28;20209;-80
2022/05/08 11:08:47;;;;;;;6.60;1.77;;;18.10;99.90;;;;;;5041793;28;20213;-80
2022/05/08 11:11:14;;;;;;;8.15;1.90;;;17.80;99.90;;;;;;5062167;28;20209;-81
2022/05/08 11:13:48;;;;;;;6.90;2.00;;;17.80;99.90;;;;;;5060950;28;20629;-78
2022/05/08 11:16:36;;;;;;;6.65;2.03;;;18.10;99.90;;;;;;5062472;28;20217;-78
2022/05/08 11:19:05;;;;;;;5.80;1.77;;;18.40;99.90;;;;;;5055297;28;20586;-79
2022/05/08 11:21:33;;;;;;;2.75;1.50;;;18.60;99.90;;;;;;5048251;28;20226;-79
2022/05/08 11:24:00;;;;;;;5.78;1.80;;;18.80;99.90;;;;;;5047844;28;20289;-76
2022/05/08 11:26:29;;;;;;;6.15;1.92;;;18.50;99.90;;;;;;5047068;28;20210;-80
2022/05/08 11:28:58;;;;;;;6.75;2.40;;;18.00;99.90;;;;;;5046923;28;20256;-80
2022/05/08 11:31:27;;;;;;;5.50;1.90;;;17.90;99.90;;;;;;5043626;28;20233;-80
2022/05/08 11:36:41;;;;;;;2.88;1.70;;;18.10;99.90;;;;;;5044371;28;20193;-79
2022/05/08 11:39:12;;;;;;;9.73;2.10;;;18.30;99.90;;;;;;5043036;28;20202;-77
2022/05/08 11:41:41;;;;;;;4.93;1.70;;;18.80;99.90;;;;;;5043865;28;20316;-77
2022/05/08 11:44:23;;;;;;;7.88;2.00;;;18.90;99.90;;;;;;5043096;28;20201;-78
2022/05/08 11:46:51;;;;;;;7.90;1.80;;;18.70;99.90;;;;;;5044053;28;20259;-78
2022/05/08 11:49:20;;;;;;;11.60;2.22;;;18.30;99.90;;;;;;5044266;28;20209;-79
2022/05/08 11:51:49;;;;;;;5.82;1.83;;;18.30;99.90;;;;;;5043501;28;20908;-78
2022/05/08 11:54:35;;;;;;;3.92;1.52;;;18.50;99.90;;;;;;5043022;28;20198;-79
2022/05/08 11:57:16;;;;;;;5.80;1.67;;;18.40;99.90;;;;;;5042889;28;20221;-78
2022/05/08 11:59:44;;;;;;;4.63;1.83;;;18.40;99.90;;;;;;5043083;28;20275;-77
2022/05/08 12:02:11;;;;;;;5.88;1.90;;;18.40;99.90;;;;;;5042690;28;20222;-79
2022/05/08 12:04:39;;;;;;;6.65;1.95;;;18.30;99.90;;;;;;5042685;28;20234;-79
2022/05/08 12:07:09;;;;;;;7.60;2.03;;;18.40;99.90;;;;;;5042131;28;20206;-79
2022/05/08 12:09:38;;;;;;;5.47;1.80;;;18.60;99.90;;;;;;5043062;28;20214;-79
2022/05/08 12:12:28;;;;;;;8.00;1.95;;;18.60;99.90;;;;;;5041557;28;20256;-78
2022/05/08 12:14:59;;;;;;;10.02;1.63;;;18.80;99.90;;;;;;5043155;28;20206;-80
2022/05/08 12:17:27;;;;;;;5.43;1.80;;;19.10;99.90;;;;;;5042906;28;20886;-78
2022/05/08 12:19:55;;;;;;;6.25;1.98;;;19.10;99.90;;;;;;5042399;28;20228;-81
2022/05/08 12:22:28;;;;;;;5.88;1.90;;;18.90;99.90;;;;;;5043845;28;20213;-79
2022/05/08 12:24:58;;;;;;;5.50;1.60;;;18.90;99.90;;;;;;5047082;28;20210;-77
2022/05/08 12:27:25;;;;;;;5.65;2.05;;;18.90;99.90;;;;;;5046743;28;20560;-78
2022/05/08 12:29:53;;;;;;;6.00;1.85;;;18.90;99.90;;;;;;5046239;28;20205;-80
2022/05/08 12:32:20;;;;;;;6.60;2.55;;;19.10;99.90;;;;;;5046802;28;20837;-79
2022/05/08 12:34:47;;;;;;;3.22;1.80;;;18.90;99.90;;;;;;5046308;28;20234;-80
2022/05/08 12:37:16;;;;;;;5.38;1.98;;;18.60;99.90;;;;;;5046833;28;20202;-80
2022/05/08 12:39:44;;;;;;;4.93;1.83;;;18.70;99.90;;;;;;5046483;28;20212;-79
2022/05/08 12:42:12;;;;;;;6.55;2.10;;;18.50;99.90;;;;;;5045924;28;20228;-80
2022/05/08 12:44:39;;;;;;;6.07;1.85;;;18.30;99.90;;;;;;5046202;28;20841;-80
2022/05/08 12:47:06;;;;;;;5.30;2.47;;;18.50;99.90;;;;;;5046099;28;20205;-80
2022/05/08 12:49:34;;;;;;;5.95;1.90;;;18.40;99.90;;;;;;5046271;28;20202;-79
2022/05/08 12:52:01;;;;;;;3.70;1.50;;;18.20;99.90;;;;;;5046309;28;20212;-79
2022/05/08 12:54:28;;;;;;;6.38;1.50;;;18.30;99.90;;;;;;5045675;28;20294;-80
2022/05/08 12:56:56;;;;;;;9.18;2.22;;;18.00;99.90;;;;;;5046415;28;20206;-79
2022/05/08 13:02:07;;;;;;;5.72;2.28;;;18.10;99.90;;;;;;5045201;28;20602;-80
2022/05/08 13:04:34;;;;;;;8.63;1.90;;;18.10;99.90;;;;;;5045964;28;20249;-79
2022/05/08 13:07:01;;;;;;;5.38;2.17;;;18.30;99.90;;;;;;5045634;28;20198;-80
2022/05/08 13:09:28;;;;;;;6.03;1.80;;;18.30;99.90;;;;;;5059764;28;20610;-80
2022/05/08 13:11:57;;;;;;;6.22;2.08;;;18.30;99.90;;;;;;5066537;28;20216;-79
2022/05/08 13:14:24;;;;;;;3.67;1.50;;;18.20;99.90;;;;;;5058127;28;20206;-82
2022/05/08 13:16:50;;;;;;;5.30;2.00;;;18.20;99.90;;;;;;5045877;28;20614;-80
2022/05/08 13:19:17;;;;;;;4.32;2.45;;;18.20;99.90;;;;;;5046224;28;20209;-80
2022/05/08 13:21:45;;;;;;;4.80;1.80;;;18.30;99.90;;;;;;5046276;28;20307;-80
2022/05/08 13:24:11;;;;;;;7.10;1.67;;;18.00;99.90;;;;;;5044918;28;20210;-80
2022/05/08 13:26:38;;;;;;;6.63;1.83;;;18.20;99.90;;;;;;5045400;28;20209;-79